createdAt,value
2022-10-21T00:01:00.873Z,100741.13
2022-10-21T00:03:30.981Z,100736.25
2022-10-21T00:06:00.013Z,100740.25
2022-10-21T00:08:30.804Z,100734.94
2022-10-21T00:11:00.285Z,100728.97
2022-10-21T00:13:31.750Z,100727.28
2022-10-21T00:16:04.327Z,100721.78
2022-10-21T00:18:33.434Z,100728.84
2022-10-21T00:21:06.557Z,100718.53
2022-10-21T00:23:34.458Z,100721.16
2022-10-21T00:26:04.525Z,100717.88
2022-10-21T00:28:32.219Z,100720.19
2022-10-21T00:30:59.903Z,100722.88
2022-10-21T00:33:28.157Z,100714.97
2022-10-21T00:35:57.368Z,100708.66
2022-10-21T00:38:26.404Z,100705.84
2022-10-21T00:40:54.117Z,100708.72
2022-10-21T00:43:21.805Z,100694.44
2022-10-21T00:45:51.064Z,100698.63
2022-10-21T00:48:26.179Z,100696.06
2022-10-21T00:50:56.311Z,100691.94
2022-10-21T00:53:26.434Z,100679.84
2022-10-21T00:55:57.038Z,100680.81
2022-10-21T00:58:27.790Z,100668.00
2022-10-21T01:00:57.278Z,100658.91
2022-10-21T01:03:26.655Z,100655.06
2022-10-21T01:05:55.092Z,100651.97
2022-10-21T01:08:23.899Z,100646.56
2022-10-21T01:10:53.114Z,100647.72
2022-10-21T01:13:26.844Z,100649.81
2022-10-21T01:15:58.238Z,100640.31
2022-10-21T01:18:32.289Z,100634.47
2022-10-21T01:21:21.382Z,100629.66
2022-10-21T01:24:21.275Z,100627.34
2022-10-21T01:27:08.417Z,100626.91
2022-10-21T01:30:15.821Z,100632.00
2022-10-21T01:33:13.144Z,100626.47
2022-10-21T01:35:45.736Z,100627.72
2022-10-21T01:38:19.224Z,100630.03
2022-10-21T01:40:55.969Z,100637.69
2022-10-21T01:43:30.760Z,100630.19
2022-10-21T01:46:03.452Z,100624.34
2022-10-21T01:48:36.403Z,100619.56
2022-10-21T01:51:07.574Z,100621.41
2022-10-21T01:53:46.705Z,100610.63
2022-10-21T01:56:16.733Z,100603.88
2022-10-21T01:58:45.457Z,100599.34
2022-10-21T02:01:14.742Z,100599.16
2022-10-21T02:03:47.040Z,100593.72
2022-10-21T02:06:15.266Z,100582.34
2022-10-21T02:08:43.758Z,100583.41
2022-10-21T02:11:13.289Z,100579.31
2022-10-21T02:13:44.070Z,100572.19
2022-10-21T02:16:14.973Z,100572.50
2022-10-21T02:18:45.639Z,100570.44
2022-10-21T02:21:17.649Z,100575.63
2022-10-21T02:23:52.421Z,100565.97
2022-10-21T02:26:20.553Z,100562.56
2022-10-21T02:28:48.729Z,100567.56
2022-10-21T02:31:28.415Z,100574.03
2022-10-21T02:34:05.982Z,100569.97
2022-10-21T02:36:40.844Z,100558.06
2022-10-21T02:39:15.481Z,100549.41
2022-10-21T02:41:43.756Z,100544.09
2022-10-21T02:44:11.505Z,100549.47
2022-10-21T02:46:41.433Z,100539.47
2022-10-21T02:49:11.314Z,100538.81
2022-10-21T02:51:39.046Z,100538.75
2022-10-21T02:54:06.813Z,100540.97
2022-10-21T02:56:35.428Z,100540.97
2022-10-21T02:59:03.224Z,100536.06
2022-10-21T03:01:30.980Z,100532.91
2022-10-21T03:04:00.526Z,100529.66
2022-10-21T03:06:29.647Z,100533.44
2022-10-21T03:08:57.427Z,100538.09
2022-10-21T03:11:25.305Z,100546.97
2022-10-21T03:13:53.114Z,100564.94
2022-10-21T03:16:20.947Z,100560.88
2022-10-21T03:18:48.745Z,100557.72
2022-10-21T03:21:16.450Z,100543.09
2022-10-21T03:23:45.557Z,100535.78
2022-10-21T03:26:13.308Z,100530.75
2022-10-21T03:28:41.037Z,100531.72
2022-10-21T03:31:08.932Z,100533.50
2022-10-21T03:33:36.677Z,100530.16
2022-10-21T03:36:04.824Z,100522.19
2022-10-21T03:38:32.595Z,100517.19
2022-10-21T03:41:02.979Z,100520.13
2022-10-21T03:43:30.802Z,100514.50
2022-10-21T03:45:58.525Z,100522.25
2022-10-21T03:48:26.248Z,100519.69
2022-10-21T03:50:54.078Z,100510.94
2022-10-21T03:53:38.085Z,100505.53
2022-10-21T03:56:11.062Z,100500.53
2022-10-21T03:58:38.877Z,100496.72
2022-10-21T04:01:06.983Z,100489.59
2022-10-21T04:03:34.806Z,100487.97
2022-10-21T04:06:04.887Z,100487.38
2022-10-21T04:08:32.862Z,100483.91
2022-10-21T04:11:02.789Z,100481.72
2022-10-21T04:13:32.285Z,100479.91
2022-10-21T04:16:00.745Z,100479.97
2022-10-21T04:18:28.709Z,100480.53
2022-10-21T04:20:56.487Z,100467.13
2022-10-21T04:23:24.353Z,100466.78
2022-10-21T04:25:52.101Z,100451.38
2022-10-21T04:28:19.819Z,100451.31
2022-10-21T04:30:50.232Z,100445.75
2022-10-21T04:33:17.912Z,100448.22
2022-10-21T04:35:45.609Z,100446.63
2022-10-21T04:38:13.318Z,100440.09
2022-10-21T04:40:41.050Z,100430.47
2022-10-21T04:43:08.708Z,100435.56
2022-10-21T04:45:39.443Z,100437.97
2022-10-21T04:48:08.732Z,100441.38
2022-10-21T04:50:36.672Z,100433.91
2022-10-21T04:53:04.646Z,100437.03
2022-10-21T04:55:32.438Z,100431.66
2022-10-21T04:58:00.331Z,100430.72
2022-10-21T05:00:28.127Z,100429.75
2022-10-21T05:02:55.790Z,100436.16
2022-10-21T05:05:24.846Z,100436.31
2022-10-21T05:07:52.503Z,100430.53
2022-10-21T05:10:20.276Z,100423.13
2022-10-21T05:12:47.981Z,100428.97
2022-10-21T05:15:15.765Z,100422.94
2022-10-21T05:17:43.653Z,100415.75
2022-10-21T05:20:12.017Z,100417.56
2022-10-21T05:22:41.348Z,100420.00
2022-10-21T05:25:10.025Z,100423.25
2022-10-21T05:27:37.837Z,100426.81
2022-10-21T05:30:06.445Z,100415.03
2022-10-21T05:32:34.140Z,100424.31
2022-10-21T05:35:01.870Z,100411.88
2022-10-21T05:37:56.685Z,100403.38
2022-10-21T05:40:24.757Z,100406.91
2022-10-21T05:42:52.562Z,100418.03
2022-10-21T05:45:20.525Z,100421.22
2022-10-21T05:47:48.257Z,100411.78
2022-10-21T05:50:16.156Z,100413.69
2022-10-21T05:52:43.870Z,100416.97
2022-10-21T05:55:13.077Z,100420.44
2022-10-21T05:57:40.910Z,100424.59
2022-10-21T06:00:09.900Z,100433.50
2022-10-21T06:02:37.982Z,100425.47
2022-10-21T06:05:06.205Z,100429.69
2022-10-21T06:07:33.918Z,100432.59
2022-10-21T06:10:01.742Z,100431.53
2022-10-21T06:12:30.800Z,100437.47
2022-10-21T06:14:58.467Z,100441.38
2022-10-21T06:17:26.328Z,100440.59
2022-10-21T06:19:54.013Z,100442.97
2022-10-21T06:22:21.738Z,100446.44
2022-10-21T06:24:50.645Z,100447.72
2022-10-21T06:27:18.789Z,100448.13
2022-10-21T06:29:48.059Z,100444.50
2022-10-21T06:32:15.819Z,100448.06
2022-10-21T06:34:43.535Z,100439.44
2022-10-21T06:37:11.222Z,100439.19
2022-10-21T06:39:38.922Z,100428.19
2022-10-21T06:42:06.630Z,100421.78
2022-10-21T06:44:34.314Z,100436.97
2022-10-21T06:47:03.981Z,100437.97
2022-10-21T06:49:31.719Z,100430.97
2022-10-21T06:51:59.433Z,100415.34
2022-10-21T06:54:27.325Z,100407.66
2022-10-21T06:56:55.120Z,100393.41
2022-10-21T06:59:22.795Z,100393.44
2022-10-21T07:02:05.846Z,100398.59
2022-10-21T07:04:34.918Z,100414.28
2022-10-21T07:07:02.630Z,100407.31
2022-10-21T07:09:30.629Z,100417.94
2022-10-21T07:11:58.450Z,100406.59
2022-10-21T07:14:26.366Z,100412.84
2022-10-21T07:16:54.333Z,100419.84
2022-10-21T07:19:22.095Z,100413.03
2022-10-21T07:21:51.904Z,100405.34
2022-10-21T07:24:22.479Z,100420.63
2022-10-21T07:26:50.887Z,100441.72
2022-10-21T07:29:19.051Z,100450.78
2022-10-21T07:31:46.704Z,100463.78
2022-10-21T07:34:14.475Z,100461.78
2022-10-21T07:36:44.074Z,100454.25
2022-10-21T07:39:15.724Z,100448.09
2022-10-21T07:41:45.486Z,100438.16
2022-10-21T07:44:13.904Z,100441.97
2022-10-21T07:46:42.909Z,100430.97
2022-10-21T07:49:11.320Z,100443.41
2022-10-21T07:51:39.940Z,100440.78
2022-10-21T07:54:08.008Z,100442.94
2022-10-21T07:56:40.585Z,100431.69
2022-10-21T07:59:12.885Z,100431.97
2022-10-21T08:01:44.188Z,100443.19
2022-10-21T08:04:13.874Z,100451.31
2022-10-21T08:06:41.761Z,100444.84
2022-10-21T08:09:09.539Z,100445.47
2022-10-21T08:11:39.013Z,100442.16
2022-10-21T08:14:09.742Z,100436.97
2022-10-21T08:16:37.739Z,100441.72
2022-10-21T08:19:06.096Z,100439.03
2022-10-21T08:21:33.822Z,100439.22
2022-10-21T08:24:03.252Z,100433.66
2022-10-21T08:26:31.364Z,100438.22
2022-10-21T08:29:00.497Z,100441.59
2022-10-21T08:31:30.289Z,100444.59
2022-10-21T08:33:58.144Z,100442.47
2022-10-21T08:36:26.932Z,100442.19
2022-10-21T08:38:54.947Z,100446.88
2022-10-21T08:41:35.497Z,100433.44
2022-10-21T08:44:06.950Z,100427.81
2022-10-21T08:46:36.996Z,100434.50
2022-10-21T08:49:07.364Z,100423.22
2022-10-21T08:51:39.127Z,100417.03
2022-10-21T08:54:11.169Z,100417.50
2022-10-21T08:56:38.853Z,100410.00
2022-10-21T08:59:11.528Z,100411.63
2022-10-21T09:01:46.989Z,100411.97
2022-10-21T09:04:20.069Z,100410.34
2022-10-21T09:06:53.265Z,100414.69
2022-10-21T09:09:26.593Z,100403.59
2022-10-21T09:12:00.593Z,100406.31
2022-10-21T09:14:50.838Z,100402.81
2022-10-21T09:17:30.788Z,100397.97
2022-10-21T09:20:04.395Z,100400.38
2022-10-21T09:22:49.585Z,100400.38
2022-10-21T09:25:20.589Z,100389.91
2022-10-21T09:27:56.448Z,100387.78
2022-10-21T09:30:26.301Z,100372.69
2022-10-21T09:32:57.769Z,100379.72
2022-10-21T09:35:32.957Z,100374.88
2022-10-21T09:38:03.613Z,100378.63
2022-10-21T09:40:33.842Z,100374.66
2022-10-21T09:43:02.146Z,100371.66
2022-10-21T09:45:34.129Z,100374.13
2022-10-21T09:48:04.112Z,100378.72
2022-10-21T09:50:34.352Z,100383.03
2022-10-21T09:53:07.245Z,100389.81
2022-10-21T09:55:35.134Z,100387.41
2022-10-21T09:58:04.371Z,100382.56
2022-10-21T10:00:47.939Z,100382.25
2022-10-21T10:03:31.721Z,100398.22
2022-10-21T10:05:59.887Z,100398.22
2022-10-21T10:08:34.483Z,100403.38
2022-10-21T10:11:04.408Z,100398.00
2022-10-21T10:13:32.480Z,100399.34
2022-10-21T10:16:19.332Z,100396.66
2022-10-21T10:18:47.030Z,100392.63
2022-10-21T10:21:15.979Z,100402.09
2022-10-21T10:23:45.724Z,100408.84
2022-10-21T10:26:19.256Z,100408.59
2022-10-21T10:28:52.669Z,100401.63
2022-10-21T10:31:31.172Z,100398.94
2022-10-21T10:34:03.028Z,100405.41
2022-10-21T10:36:33.608Z,100395.41
2022-10-21T10:39:03.120Z,100395.41
2022-10-21T10:41:34.416Z,100382.72
2022-10-21T10:44:03.515Z,100377.31
2022-10-21T10:46:34.655Z,100378.41
2022-10-21T10:49:06.447Z,100376.50
2022-10-21T10:51:35.569Z,100373.00
2022-10-21T10:54:17.572Z,100373.28
2022-10-21T10:56:49.993Z,100376.75
2022-10-21T10:59:24.686Z,100375.97
2022-10-21T11:02:01.582Z,100364.59
2022-10-21T11:04:33.784Z,100368.13
2022-10-21T11:07:06.773Z,100358.13
2022-10-21T11:09:35.126Z,100362.69
2022-10-21T11:12:04.957Z,100357.81
2022-10-21T11:14:33.008Z,100360.53
2022-10-21T11:17:07.265Z,100349.16
2022-10-21T11:19:44.035Z,100348.34
2022-10-21T11:22:16.284Z,100343.47
2022-10-21T11:24:53.700Z,100347.50
2022-10-21T11:27:28.688Z,100356.16
2022-10-21T11:30:02.950Z,100358.56
2022-10-21T11:32:39.472Z,100353.41
2022-10-21T11:35:17.854Z,100346.63
2022-10-21T11:37:58.246Z,100342.88
2022-10-21T11:40:33.280Z,100337.16
2022-10-21T11:43:06.871Z,100338.25
2022-10-21T11:45:41.807Z,100341.22
2022-10-21T11:48:21.340Z,100330.09
2022-10-21T11:50:58.840Z,100326.56
2022-10-21T11:53:40.117Z,100316.25
2022-10-21T11:56:16.394Z,100330.31
2022-10-21T11:58:50.963Z,100325.72
2022-10-21T12:01:30.031Z,100329.44
2022-10-21T12:04:24.399Z,100326.75
2022-10-21T12:07:03.755Z,100329.16
2022-10-21T12:09:37.716Z,100327.75
2022-10-21T12:12:07.477Z,100325.31
2022-10-21T12:14:38.283Z,100329.63
2022-10-21T12:17:09.258Z,100332.06
2022-10-21T12:19:38.550Z,100331.28
2022-10-21T12:22:07.568Z,100330.72
2022-10-21T12:24:44.277Z,100326.91
2022-10-21T12:27:18.503Z,100319.38
2022-10-21T12:29:54.126Z,100324.72
2022-10-21T12:32:27.985Z,100330.94
2022-10-21T12:34:57.518Z,100324.97
2022-10-21T12:37:46.459Z,100314.13
2022-10-21T12:40:17.330Z,100330.09
2022-10-21T12:42:47.807Z,100319.03
2022-10-21T12:45:37.134Z,100325.50
2022-10-21T12:48:08.181Z,100335.25
2022-10-21T12:50:37.523Z,100340.88
2022-10-21T12:53:09.161Z,100331.59
2022-10-21T12:55:41.374Z,100340.81
2022-10-21T12:58:23.484Z,100343.50
2022-10-21T13:00:56.597Z,100347.28
2022-10-21T13:03:51.988Z,100356.22
2022-10-21T13:06:51.314Z,100350.75
2022-10-21T13:09:39.603Z,100349.38
2022-10-21T13:12:27.013Z,100356.88
2022-10-21T13:14:55.504Z,100356.06
2022-10-21T13:17:34.805Z,100349.56
2022-10-21T13:20:40.998Z,100342.28
2022-10-21T13:23:36.764Z,100346.25
2022-10-21T13:26:07.092Z,100331.41
2022-10-21T13:28:34.977Z,100340.34
2022-10-21T13:31:02.729Z,100341.06
2022-10-21T13:33:38.511Z,100345.13
2022-10-21T13:36:13.030Z,100346.31
2022-10-21T13:38:49.634Z,100345.13
2022-10-21T13:41:23.505Z,100333.53
2022-10-21T13:43:55.589Z,100327.84
2022-10-21T13:46:27.018Z,100331.63
2022-10-21T13:48:55.283Z,100339.69
2022-10-21T13:51:25.960Z,100326.75
2022-10-21T13:53:57.252Z,100332.44
2022-10-21T13:56:26.086Z,100327.78
2022-10-21T13:58:54.019Z,100329.63
2022-10-21T14:01:25.227Z,100332.63
2022-10-21T14:03:53.468Z,100330.72
2022-10-21T14:06:30.310Z,100331.56
2022-10-21T14:09:00.292Z,100328.84
2022-10-21T14:11:34.893Z,100330.41
2022-10-21T14:14:08.387Z,100329.31
2022-10-21T14:16:38.881Z,100332.84
2022-10-21T14:19:10.264Z,100329.06
2022-10-21T14:21:39.200Z,100327.69
2022-10-21T14:24:20.145Z,100322.78
2022-10-21T14:26:47.836Z,100322.84
2022-10-21T14:29:15.619Z,100317.91
2022-10-21T14:31:45.704Z,100320.63
2022-10-21T14:34:22.948Z,100319.25
2022-10-21T14:37:09.388Z,100328.22
2022-10-21T14:39:40.885Z,100328.22
2022-10-21T14:42:13.358Z,100324.44
2022-10-21T14:44:42.850Z,100330.63
2022-10-21T14:47:18.226Z,100332.28
2022-10-21T14:49:47.890Z,100332.53
2022-10-21T14:52:21.310Z,100319.53
2022-10-21T14:54:54.517Z,100318.41
2022-10-21T14:57:35.356Z,100320.63
2022-10-21T15:00:03.688Z,100327.41
2022-10-21T15:02:34.483Z,100324.16
2022-10-21T15:05:04.187Z,100319.34
2022-10-21T15:07:33.086Z,100317.97
2022-10-21T15:10:14.571Z,100317.69
2022-10-21T15:12:43.580Z,100304.97
2022-10-21T15:15:42.914Z,100313.09
2022-10-21T15:18:14.196Z,100314.25
2022-10-21T15:20:53.969Z,100309.88
2022-10-21T15:23:25.314Z,100313.41
2022-10-21T15:25:57.396Z,100306.13
2022-10-21T15:28:26.037Z,100313.91
2022-10-21T15:30:53.801Z,100310.66
2022-10-21T15:33:22.453Z,100312.59
2022-10-21T15:36:00.897Z,100321.50
2022-10-21T15:38:29.612Z,100311.47
2022-10-21T15:40:58.733Z,100305.56
2022-10-21T15:43:26.488Z,100315.03
2022-10-21T15:45:54.540Z,100322.06
2022-10-21T15:48:23.055Z,100321.28
2022-10-21T15:50:50.782Z,100325.81
2022-10-21T15:53:18.480Z,100324.50
2022-10-21T15:55:46.194Z,100321.56
2022-10-21T15:58:15.255Z,100320.44
2022-10-21T16:00:43.539Z,100326.13
2022-10-21T16:03:11.224Z,100326.69
2022-10-21T16:05:39.246Z,100322.31
2022-10-21T16:08:07.040Z,100318.28
2022-10-21T16:10:37.117Z,100318.03
2022-10-21T16:13:05.531Z,100320.44
2022-10-21T16:15:35.076Z,100320.72
2022-10-21T16:18:04.184Z,100324.25
2022-10-21T16:20:33.544Z,100328.84
2022-10-21T16:23:03.545Z,100319.66
2022-10-21T16:25:31.385Z,100318.28
2022-10-21T16:27:59.113Z,100323.69
2022-10-21T16:30:28.856Z,100320.72
2022-10-21T16:32:58.142Z,100323.44
2022-10-21T16:35:26.225Z,100327.75
2022-10-21T16:37:55.521Z,100331.00
2022-10-21T16:40:24.528Z,100331.25
2022-10-21T16:42:52.949Z,100340.44
2022-10-21T16:45:22.886Z,100342.41
2022-10-21T16:47:52.677Z,100338.59
2022-10-21T16:50:23.315Z,100334.25
2022-10-21T16:52:51.044Z,100337.50
2022-10-21T16:55:19.244Z,100340.19
2022-10-21T16:57:47.209Z,100341.25
2022-10-21T17:00:15.901Z,100346.63
2022-10-21T17:02:50.358Z,100339.69
2022-10-21T17:08:35.694Z,100357.59
2022-10-21T17:11:07.757Z,100353.47
2022-10-21T17:13:35.537Z,100356.41
2022-10-21T17:16:05.485Z,100355.97
2022-10-21T17:18:33.330Z,100358.13
2022-10-21T17:21:03.865Z,100364.78
2022-10-21T17:23:33.672Z,100357.56
2022-10-21T17:26:01.494Z,100356.97
2022-10-21T17:28:30.675Z,100355.06
2022-10-21T17:30:58.356Z,100354.31
2022-10-21T17:33:26.066Z,100358.88
2022-10-21T17:35:54.021Z,100354.88
2022-10-21T17:38:21.770Z,100357.59
2022-10-21T17:40:50.807Z,100354.25
2022-10-21T17:43:18.473Z,100363.50
2022-10-21T17:45:46.250Z,100364.59
2022-10-21T17:48:13.959Z,100375.75
2022-10-21T17:50:41.710Z,100374.59
2022-10-21T17:53:09.474Z,100378.59
2022-10-21T17:55:37.212Z,100378.97
2022-10-21T17:58:07.722Z,100390.03
2022-10-21T18:00:35.652Z,100390.28
2022-10-21T18:03:05.815Z,100398.69
2022-10-21T18:05:33.523Z,100393.25
2022-10-21T18:08:01.225Z,100391.59
2022-10-21T18:10:30.129Z,100392.69
2022-10-21T18:12:57.803Z,100388.06
2022-10-21T18:15:28.240Z,100386.22
2022-10-21T18:17:56.284Z,100383.25
2022-10-21T18:20:24.201Z,100377.00
2022-10-21T18:22:53.211Z,100375.09
2022-10-21T18:25:20.886Z,100362.66
2022-10-21T18:27:49.139Z,100367.50
2022-10-21T18:30:16.845Z,100358.59
2022-10-21T18:32:45.901Z,100361.28
2022-10-21T18:35:14.973Z,100369.97
2022-10-21T18:37:43.382Z,100377.00
2022-10-21T18:40:11.828Z,100372.06
2022-10-21T18:42:39.822Z,100365.00
2022-10-21T18:45:08.852Z,100372.91
2022-10-21T18:47:36.904Z,100360.72
2022-10-21T18:50:08.326Z,100371.06
2022-10-21T18:52:36.123Z,100369.63
2022-10-21T18:57:34.388Z,100366.16
2022-10-21T19:00:04.505Z,100375.34
2022-10-21T19:02:32.305Z,100378.66
2022-10-21T19:05:02.038Z,100385.16
2022-10-21T19:07:31.969Z,100382.09
2022-10-21T19:09:59.724Z,100387.31
2022-10-21T19:12:27.493Z,100383.16
2022-10-21T19:14:55.367Z,100382.91
2022-10-21T19:17:23.462Z,100380.47
2022-10-21T19:19:51.488Z,100393.50
2022-10-21T19:22:19.945Z,100393.25
2022-10-21T19:24:49.110Z,100397.06
2022-10-21T19:27:16.876Z,100394.34
2022-10-21T19:29:44.893Z,100392.97
2022-10-21T19:32:13.560Z,100394.34
2022-10-21T19:34:41.326Z,100404.09
2022-10-21T19:37:10.499Z,100401.09
2022-10-21T19:39:38.241Z,100398.91
2022-10-21T19:42:08.329Z,100401.38
2022-10-21T19:44:36.966Z,100400.28
2022-10-21T19:47:04.855Z,100401.63
2022-10-21T19:49:32.881Z,100401.94
2022-10-21T19:52:00.618Z,100402.22
2022-10-21T19:54:29.701Z,100399.72
2022-10-21T19:56:57.826Z,100397.94
2022-10-21T19:59:27.133Z,100400.88
2022-10-21T20:01:54.817Z,100405.72
2022-10-21T20:04:22.540Z,100411.44
2022-10-21T20:06:50.291Z,100409.56
2022-10-21T20:09:18.163Z,100404.19
2022-10-21T20:11:45.960Z,100407.09
2022-10-21T20:14:14.226Z,100411.69
2022-10-21T20:16:44.006Z,100416.06
2022-10-21T20:19:13.166Z,100410.63
2022-10-21T20:21:41.118Z,100416.56
2022-10-21T20:24:10.536Z,100414.97
2022-10-21T20:29:06.963Z,100418.97
2022-10-21T20:31:34.727Z,100425.22
2022-10-21T20:34:04.068Z,100427.41
2022-10-21T20:36:33.437Z,100423.06
2022-10-21T20:39:03.866Z,100424.38
2022-10-21T20:41:34.368Z,100429.00
2022-10-21T20:44:03.130Z,100428.22
2022-10-21T20:46:34.694Z,100429.59
2022-10-21T20:49:05.489Z,100430.09
2022-10-21T20:51:33.337Z,100432.31
2022-10-21T20:54:05.101Z,100434.09
2022-10-21T20:56:34.641Z,100430.69
2022-10-21T20:59:07.003Z,100436.06
2022-10-21T21:01:36.721Z,100436.38
2022-10-21T21:04:08.102Z,100428.22
2022-10-21T21:06:37.038Z,100435.53
2022-10-21T21:11:52.836Z,100421.72
2022-10-21T21:14:20.714Z,100428.78
2022-10-21T21:16:48.480Z,100422.78
2022-10-21T21:19:19.319Z,100416.56
2022-10-21T21:21:47.471Z,100420.31
2022-10-21T21:24:15.830Z,100418.72
2022-10-21T21:26:43.566Z,100422.56
2022-10-21T21:29:11.553Z,100434.53
2022-10-21T21:31:40.373Z,100430.16
2022-10-21T21:34:08.602Z,100429.88
2022-10-21T21:36:38.114Z,100431.25
2022-10-21T21:39:06.474Z,100438.00
2022-10-21T21:41:34.600Z,100434.97
2022-10-21T21:44:08.063Z,100432.81
2022-10-21T21:46:36.373Z,100434.75
2022-10-21T21:49:06.229Z,100435.31
2022-10-21T21:51:35.924Z,100440.59
2022-10-21T21:54:07.582Z,100440.19
2022-10-21T21:56:37.276Z,100443.69
2022-10-21T21:59:05.028Z,100442.59
2022-10-21T22:01:32.861Z,100436.59
2022-10-21T22:04:04.406Z,100444.19
2022-10-21T22:06:33.386Z,100433.09
2022-10-21T22:09:03.091Z,100449.66
2022-10-21T22:11:33.469Z,100440.22
2022-10-21T22:14:02.983Z,100441.06
2022-10-21T22:16:30.958Z,100447.53
2022-10-21T22:19:00.330Z,100455.34
2022-10-21T22:21:28.342Z,100442.03
2022-10-21T22:23:56.188Z,100444.78
2022-10-21T22:26:26.559Z,100447.50
2022-10-21T22:28:56.307Z,100451.28
2022-10-21T22:31:29.198Z,100445.03
2022-10-21T22:33:59.810Z,100442.03
2022-10-21T22:36:27.653Z,100429.31
2022-10-21T22:38:55.422Z,100445.31
2022-10-21T22:41:23.176Z,100439.56
2022-10-21T22:43:51.055Z,100446.09
2022-10-21T22:46:33.002Z,100443.66
2022-10-21T22:49:02.319Z,100445.03
2022-10-21T22:51:30.109Z,100452.34
2022-10-21T22:53:58.012Z,100448.53
2022-10-21T22:56:26.637Z,100457.56
2022-10-21T22:58:54.650Z,100457.25
2022-10-21T23:01:26.574Z,100461.03
2022-10-21T23:03:54.370Z,100459.38
2022-10-21T23:06:22.976Z,100464.81
2022-10-21T23:08:51.016Z,100456.69
2022-10-21T23:11:18.916Z,100459.16
2022-10-21T23:13:56.394Z,100451.28
2022-10-21T23:16:32.173Z,100449.34
2022-10-21T23:19:00.336Z,100448.25
2022-10-21T23:21:29.896Z,100427.94
2022-10-21T23:23:57.771Z,100426.56
2022-10-21T23:26:25.731Z,100435.25
2022-10-21T23:28:53.593Z,100424.13
2022-10-21T23:31:21.485Z,100426.84
2022-10-21T23:33:50.765Z,100428.72
2022-10-21T23:36:18.708Z,100436.06
2022-10-21T23:38:46.614Z,100437.69
2022-10-21T23:41:14.481Z,100439.28
2022-10-21T23:43:42.289Z,100445.81
2022-10-21T23:46:10.201Z,100441.78
2022-10-21T23:48:37.912Z,100430.41
2022-10-21T23:51:07.274Z,100425.78
2022-10-21T23:53:35.134Z,100418.97
2022-10-21T23:56:02.946Z,100427.97
2022-10-21T23:58:30.861Z,100433.88
